createdAt,value
2023-02-28T00:00:03.029Z,9.711789
2023-02-28T00:01:03.020Z,9.711830
2023-02-28T00:02:03.095Z,9.711902
2023-02-28T00:03:03.074Z,9.711944
2023-02-28T00:04:03.028Z,9.711722
2023-02-28T00:05:02.999Z,9.711385
2023-02-28T00:06:02.988Z,9.711203
2023-02-28T00:07:04.484Z,9.711183
2023-02-28T00:08:02.968Z,9.711327
2023-02-28T00:09:02.974Z,9.711337
2023-02-28T00:10:02.967Z,9.711749
2023-02-28T00:11:02.948Z,9.711949
2023-02-28T00:12:02.948Z,9.712234
2023-02-28T00:13:02.933Z,9.712208
2023-02-28T00:14:02.925Z,9.712033
2023-02-28T00:15:02.911Z,9.711938
2023-02-28T00:16:02.917Z,9.711843
2023-02-28T00:17:02.908Z,9.711986
2023-02-28T00:18:02.891Z,9.712045
2023-02-28T00:19:02.898Z,9.712044
2023-02-28T00:20:02.888Z,9.712030
2023-02-28T00:21:02.882Z,9.711863
2023-02-28T00:22:02.875Z,9.711877
2023-02-28T00:23:02.881Z,9.711998
2023-02-28T00:28:52.481Z,9.711833
2023-02-28T00:29:52.455Z,9.711964
2023-02-28T00:30:52.521Z,9.712232
2023-02-28T00:31:52.468Z,9.712158
2023-02-28T00:32:52.452Z,9.712236
2023-02-28T00:33:52.448Z,9.712214
2023-02-28T00:34:52.426Z,9.712229
2023-02-28T00:35:52.468Z,9.712092
2023-02-28T00:36:52.432Z,9.712177
2023-02-28T00:37:52.399Z,9.711915
2023-02-28T00:38:52.406Z,9.711906
2023-02-28T00:39:52.423Z,9.712241
2023-02-28T00:40:52.375Z,9.712407
2023-02-28T00:41:52.372Z,9.712046
2023-02-28T00:42:52.364Z,9.712202
2023-02-28T00:43:52.356Z,9.712461
2023-02-28T00:44:52.348Z,9.712193
2023-02-28T00:45:52.368Z,9.712064
2023-02-28T00:46:52.350Z,9.711906
2023-02-28T00:47:52.322Z,9.711569
2023-02-28T00:48:52.318Z,9.711776
2023-02-28T00:49:52.839Z,9.711547
2023-02-28T00:50:52.296Z,9.711380
2023-02-28T00:51:52.294Z,9.711442
2023-02-28T00:52:52.276Z,9.711179
2023-02-28T00:53:52.282Z,9.711203
2023-02-28T00:54:52.314Z,9.711222
2023-02-28T00:55:53.266Z,9.711221
2023-02-28T00:56:52.243Z,9.711221
2023-02-28T00:57:52.311Z,9.711221
2023-02-28T00:58:52.270Z,9.711221
2023-02-28T00:59:52.263Z,9.711221
2023-02-28T01:00:52.216Z,9.711221
2023-02-28T01:01:52.330Z,9.711221
2023-02-28T01:02:52.222Z,9.711221
2023-02-28T01:03:52.203Z,9.711221
2023-02-28T01:04:52.202Z,9.711221
2023-02-28T01:05:52.178Z,9.711221
2023-02-28T01:06:52.166Z,9.711221
2023-02-28T01:07:52.156Z,9.711221
2023-02-28T01:08:52.196Z,9.710364
2023-02-28T01:09:52.156Z,9.710956
2023-02-28T01:10:52.166Z,9.711564
2023-02-28T01:11:52.128Z,9.711819
2023-02-28T01:12:52.124Z,9.712289
2023-02-28T01:13:52.124Z,9.711501
2023-02-28T01:14:52.111Z,9.711493
2023-02-28T01:15:52.210Z,9.711528
2023-02-28T01:16:52.110Z,9.711358
2023-02-28T01:17:52.083Z,9.711351
2023-02-28T01:18:52.074Z,9.711127
2023-02-28T01:19:52.074Z,9.711334
2023-02-28T01:20:52.070Z,9.711096
2023-02-28T01:21:52.048Z,9.711085
2023-02-28T01:22:52.046Z,9.711041
2023-02-28T01:23:52.042Z,9.711163
2023-02-28T01:24:52.043Z,9.711017
2023-02-28T01:25:52.056Z,9.710935
2023-02-28T01:26:52.014Z,9.710937
2023-02-28T01:27:52.006Z,9.710996
2023-02-28T01:28:52.007Z,9.711105
2023-02-28T01:29:51.992Z,9.711067
2023-02-28T01:30:52.309Z,9.711107
2023-02-28T01:31:51.997Z,9.711148
2023-02-28T01:32:51.965Z,9.711164
2023-02-28T01:33:51.962Z,9.711327
2023-02-28T01:34:51.966Z,9.711056
2023-02-28T01:35:51.964Z,9.711063
2023-02-28T01:36:51.935Z,9.711173
2023-02-28T01:37:51.921Z,9.711214
2023-02-28T01:38:51.917Z,9.711263
2023-02-28T01:39:51.928Z,9.711529
2023-02-28T01:40:52.758Z,9.711480
2023-02-28T01:41:51.878Z,9.711453
2023-02-28T01:42:52.892Z,9.711406
2023-02-28T01:43:51.873Z,9.711357
2023-02-28T01:44:51.868Z,9.711400
2023-02-28T01:45:51.922Z,9.711220
2023-02-28T01:46:51.855Z,9.711182
2023-02-28T01:47:51.845Z,9.710991
2023-02-28T01:48:51.838Z,9.711114
2023-02-28T01:49:51.840Z,9.711032
2023-02-28T01:50:51.823Z,9.710993
2023-02-28T01:51:52.059Z,9.711270
2023-02-28T01:52:51.809Z,9.711519
2023-02-28T01:53:51.854Z,9.711546
2023-02-28T01:54:51.798Z,9.711530
2023-02-28T01:55:51.783Z,9.711676
2023-02-28T01:56:51.802Z,9.711710
2023-02-28T01:57:52.265Z,9.711714
2023-02-28T01:58:51.760Z,9.711917
2023-02-28T01:59:52.268Z,9.711707
2023-02-28T02:00:51.747Z,9.711700
2023-02-28T02:01:51.751Z,9.711685
2023-02-28T02:02:51.787Z,9.711709
2023-02-28T02:03:51.718Z,9.711694
2023-02-28T02:04:51.709Z,9.711759
2023-02-28T02:05:51.716Z,9.711780
2023-02-28T02:06:51.695Z,9.711800
2023-02-28T02:07:51.704Z,9.711827
2023-02-28T02:08:51.672Z,9.711918
2023-02-28T02:09:51.682Z,9.711908
2023-02-28T02:10:51.666Z,9.711776
2023-02-28T02:11:51.669Z,9.711894
2023-02-28T02:12:51.654Z,9.711782
2023-02-28T02:13:51.633Z,9.711838
2023-02-28T02:14:51.637Z,9.711784
2023-02-28T02:15:51.695Z,9.711699
2023-02-28T02:16:51.648Z,9.711765
2023-02-28T02:17:51.608Z,9.711837
2023-02-28T02:18:51.596Z,9.711900
2023-02-28T02:19:51.593Z,9.712016
2023-02-28T02:20:51.581Z,9.712047
2023-02-28T02:21:51.584Z,9.712047
2023-02-28T02:22:51.584Z,9.711946
2023-02-28T02:23:51.561Z,9.711902
2023-02-28T02:24:51.561Z,9.711743
2023-02-28T02:25:51.542Z,9.711701
2023-02-28T02:26:51.554Z,9.711668
2023-02-28T02:27:51.549Z,9.711653
2023-02-28T02:28:51.525Z,9.711656
2023-02-28T02:29:51.516Z,9.711641
2023-02-28T02:30:51.511Z,9.711678
2023-02-28T02:31:51.611Z,9.711663
2023-02-28T02:32:51.501Z,9.711691
2023-02-28T02:33:51.488Z,9.711703
2023-02-28T02:34:51.481Z,9.711697
2023-02-28T02:35:51.527Z,9.711616
2023-02-28T02:36:51.465Z,9.711636
2023-02-28T02:37:51.466Z,9.711679
2023-02-28T02:38:51.460Z,9.711664
2023-02-28T02:39:51.444Z,9.711676
2023-02-28T02:40:51.447Z,9.711609
2023-02-28T02:41:51.444Z,9.711617
2023-02-28T02:42:51.420Z,9.711590
2023-02-28T02:43:51.433Z,9.711594
2023-02-28T02:44:51.400Z,9.711597
2023-02-28T02:45:51.407Z,9.711590
2023-02-28T02:46:51.412Z,9.711589
2023-02-28T02:47:51.374Z,9.711556
2023-02-28T02:48:51.367Z,9.711537
2023-02-28T02:49:51.357Z,9.711522
2023-02-28T02:50:51.363Z,9.711481
2023-02-28T02:51:52.274Z,9.711488
2023-02-28T02:52:51.338Z,9.711492
2023-02-28T02:53:51.361Z,9.711533
2023-02-28T02:54:52.628Z,9.711474
2023-02-28T02:55:51.315Z,9.711547
2023-02-28T02:56:51.299Z,9.711568
2023-02-28T02:57:51.291Z,9.711609
2023-02-28T02:58:51.289Z,9.711622
2023-02-28T02:59:51.286Z,9.711744
2023-02-28T03:00:51.332Z,9.711603
2023-02-28T03:01:51.261Z,9.711677
2023-02-28T03:02:51.252Z,9.711560
2023-02-28T03:03:51.271Z,9.711425
2023-02-28T03:04:51.230Z,9.711428
2023-02-28T03:05:52.227Z,9.711698
2023-02-28T03:06:51.227Z,9.711523
2023-02-28T03:07:51.221Z,9.711303
2023-02-28T03:08:51.213Z,9.711410
2023-02-28T03:09:51.846Z,9.711452
2023-02-28T03:10:51.189Z,9.711494
2023-02-28T03:11:51.181Z,9.711514
2023-02-28T03:12:51.169Z,9.711544
2023-02-28T03:13:51.175Z,9.711575
2023-02-28T03:14:51.152Z,9.711623
2023-02-28T03:15:51.151Z,9.711686
2023-02-28T03:16:51.146Z,9.711688
2023-02-28T03:17:51.144Z,9.711655
2023-02-28T03:18:51.125Z,9.711812
2023-02-28T03:19:51.132Z,9.711858
2023-02-28T03:20:51.115Z,9.711803
2023-02-28T03:21:51.115Z,9.711660
2023-02-28T03:22:51.095Z,9.711733
2023-02-28T03:23:51.088Z,9.711797
2023-02-28T03:24:51.087Z,9.711937
2023-02-28T03:25:51.078Z,9.712015
2023-02-28T03:26:51.078Z,9.712105
2023-02-28T03:27:51.059Z,9.711974
2023-02-28T03:28:51.053Z,9.711922
2023-02-28T03:29:51.040Z,9.711967
2023-02-28T03:30:51.032Z,9.711976
2023-02-28T03:31:51.171Z,9.711993
2023-02-28T03:32:51.019Z,9.711916
2023-02-28T03:33:51.009Z,9.711948
2023-02-28T03:34:51.007Z,9.711859
2023-02-28T03:35:51.073Z,9.711828
2023-02-28T03:36:51.061Z,9.711828
2023-02-28T03:37:50.984Z,9.711828
2023-02-28T03:38:50.983Z,9.711772
2023-02-28T03:39:50.964Z,9.711748
2023-02-28T03:40:50.976Z,9.711740
2023-02-28T03:41:50.960Z,9.711790
2023-02-28T03:42:50.944Z,9.711806
2023-02-28T03:43:50.965Z,9.711753
2023-02-28T03:44:50.926Z,9.711751
2023-02-28T03:45:50.944Z,9.711763
2023-02-28T03:46:50.905Z,9.711755
2023-02-28T03:47:50.979Z,9.711784
2023-02-28T03:48:50.893Z,9.711732
2023-02-28T03:49:50.885Z,9.711783
2023-02-28T03:50:50.883Z,9.711761
2023-02-28T03:51:50.862Z,9.711716
2023-02-28T03:52:50.852Z,9.711749
2023-02-28T03:53:51.853Z,9.711734
2023-02-28T03:54:50.844Z,9.711784
2023-02-28T03:55:51.795Z,9.711761
2023-02-28T03:56:50.826Z,9.711660
2023-02-28T03:57:50.817Z,9.711748
2023-02-28T03:58:54.815Z,9.711675
2023-02-28T03:59:50.813Z,9.711698
2023-02-28T04:00:50.809Z,9.711741
2023-02-28T04:01:50.825Z,9.711732
2023-02-28T04:02:50.789Z,9.711679
2023-02-28T04:03:50.780Z,9.711679
2023-02-28T04:04:50.782Z,9.711733
2023-02-28T04:05:50.772Z,9.711721
2023-02-28T04:06:51.648Z,9.711678
2023-02-28T04:07:51.752Z,9.711700
2023-02-28T04:08:50.730Z,9.711676
2023-02-28T04:09:50.730Z,9.711693
2023-02-28T04:10:50.716Z,9.711713
2023-02-28T04:11:50.713Z,9.711673
2023-02-28T04:12:50.703Z,9.711679
2023-02-28T04:13:50.698Z,9.711713
2023-02-28T04:14:50.685Z,9.711780
2023-02-28T04:15:50.728Z,9.711795
2023-02-28T04:16:50.674Z,9.711689
2023-02-28T04:17:50.671Z,9.711782
2023-02-28T04:18:50.653Z,9.711686
2023-02-28T04:19:50.655Z,9.711865
2023-02-28T04:20:50.650Z,9.711818
2023-02-28T04:21:50.634Z,9.711754
2023-02-28T04:22:50.624Z,9.711720
2023-02-28T04:23:50.622Z,9.711622
2023-02-28T04:24:50.612Z,9.711620
2023-02-28T04:25:50.600Z,9.711663
2023-02-28T04:26:50.602Z,9.711641
2023-02-28T04:27:50.582Z,9.711621
2023-02-28T04:28:50.592Z,9.711591
2023-02-28T04:29:50.566Z,9.711661
2023-02-28T04:30:50.563Z,9.711658
2023-02-28T04:31:50.734Z,9.711636
2023-02-28T04:32:50.574Z,9.711557
2023-02-28T04:33:50.543Z,9.711557
2023-02-28T04:34:51.368Z,9.711646
2023-02-28T04:35:50.568Z,9.711576
2023-02-28T04:36:56.917Z,9.711649
2023-02-28T04:37:52.509Z,9.711676
2023-02-28T04:38:50.510Z,9.711642
2023-02-28T04:39:50.496Z,9.711510
2023-02-28T04:40:50.486Z,9.711640
2023-02-28T04:41:50.468Z,9.711679
2023-02-28T04:42:50.468Z,9.711768
2023-02-28T04:43:50.455Z,9.711699
2023-02-28T04:44:50.453Z,9.711639
2023-02-28T04:45:50.488Z,9.711647
2023-02-28T04:46:50.429Z,9.711539
2023-02-28T04:47:50.421Z,9.711504
2023-02-28T04:48:50.416Z,9.711679
2023-02-28T04:49:50.416Z,9.711836
2023-02-28T04:50:50.401Z,9.711617
2023-02-28T04:51:50.399Z,9.711729
2023-02-28T04:52:50.394Z,9.711664
2023-02-28T04:53:50.382Z,9.711664
2023-02-28T04:54:50.367Z,9.711716
2023-02-28T04:55:50.374Z,9.711511
2023-02-28T04:56:50.360Z,9.711605
2023-02-28T04:57:50.353Z,9.711623
2023-02-28T04:58:50.363Z,9.711510
2023-02-28T04:59:50.336Z,9.711618
2023-02-28T05:00:50.320Z,9.711581
2023-02-28T05:01:50.322Z,9.711720
2023-02-28T05:02:50.308Z,9.711593
2023-02-28T05:03:50.866Z,9.711625
2023-02-28T05:04:50.356Z,9.711649
2023-02-28T05:05:50.312Z,9.711694
2023-02-28T05:06:50.277Z,9.711827
2023-02-28T05:07:50.273Z,9.711891
2023-02-28T05:08:50.270Z,9.711760
2023-02-28T05:09:50.257Z,9.711714
2023-02-28T05:10:50.246Z,9.711681
2023-02-28T05:11:50.243Z,9.711709
2023-02-28T05:12:50.230Z,9.711677
2023-02-28T05:13:50.215Z,9.711675
2023-02-28T05:14:50.214Z,9.711682
2023-02-28T05:15:50.215Z,9.711679
2023-02-28T05:16:50.201Z,9.711693
2023-02-28T05:17:50.183Z,9.711657
2023-02-28T05:18:50.235Z,9.711693
2023-02-28T05:19:50.171Z,9.711664
2023-02-28T05:20:50.167Z,9.711753
2023-02-28T05:21:50.180Z,9.711679
2023-02-28T05:22:50.142Z,9.711710
2023-02-28T05:23:50.147Z,9.711669
2023-02-28T05:24:50.128Z,9.711644
2023-02-28T05:25:50.126Z,9.711641
2023-02-28T05:26:50.118Z,9.711643
2023-02-28T05:27:50.111Z,9.711639
2023-02-28T05:28:50.106Z,9.711640
2023-02-28T05:29:50.098Z,9.711637
2023-02-28T05:30:50.078Z,9.711641
2023-02-28T05:31:50.297Z,9.711602
2023-02-28T05:32:50.071Z,9.711618
2023-02-28T05:33:50.056Z,9.711643
2023-02-28T05:34:50.053Z,9.711647
2023-02-28T05:35:50.068Z,9.711725
2023-02-28T05:36:50.045Z,9.711697
2023-02-28T05:37:50.042Z,9.711681
2023-02-28T05:38:51.871Z,9.711624
2023-02-28T05:39:50.011Z,9.711657
2023-02-28T05:40:51.829Z,9.711669
2023-02-28T05:41:51.877Z,9.711621
2023-02-28T05:42:49.999Z,9.711736
2023-02-28T05:43:49.996Z,9.711751
2023-02-28T05:44:49.992Z,9.711771
2023-02-28T05:45:49.996Z,9.711802
2023-02-28T05:46:49.955Z,9.711795
2023-02-28T05:47:49.953Z,9.711645
2023-02-28T05:48:50.075Z,9.711552
2023-02-28T05:49:51.878Z,9.711659
2023-02-28T05:50:49.928Z,9.711607
2023-02-28T05:51:49.907Z,9.711716
2023-02-28T05:52:49.905Z,9.711686
2023-02-28T05:53:49.909Z,9.711720
2023-02-28T05:54:49.889Z,9.711724
2023-02-28T05:55:49.888Z,9.711649
2023-02-28T05:56:49.875Z,9.711764
2023-02-28T05:57:49.884Z,9.711720
2023-02-28T05:58:49.865Z,9.711747
2023-02-28T05:59:49.868Z,9.711815
2023-02-28T06:00:49.846Z,9.711765
2023-02-28T06:01:49.844Z,9.711818
2023-02-28T06:02:49.841Z,9.711896
2023-02-28T06:03:49.828Z,9.712140
2023-02-28T06:04:49.829Z,9.711710
2023-02-28T06:05:49.813Z,9.711864
2023-02-28T06:06:49.818Z,9.711769
2023-02-28T06:07:49.800Z,9.711690
2023-02-28T06:08:49.803Z,9.711653
2023-02-28T06:09:49.774Z,9.711678
2023-02-28T06:10:49.773Z,9.711639
2023-02-28T06:11:55.019Z,9.711709
2023-02-28T06:12:50.782Z,9.711679
2023-02-28T06:13:49.747Z,9.711594
2023-02-28T06:14:50.794Z,9.711577
2023-02-28T06:15:49.735Z,9.711617
2023-02-28T06:16:49.769Z,9.711627
2023-02-28T06:17:49.713Z,9.711579
2023-02-28T06:18:49.711Z,9.711570
2023-02-28T06:19:49.699Z,9.711607
2023-02-28T06:20:49.693Z,9.711617
2023-02-28T06:21:49.698Z,9.711614
2023-02-28T06:22:49.680Z,9.711592
2023-02-28T06:23:49.687Z,9.711576
2023-02-28T06:24:49.663Z,9.711613
2023-02-28T06:25:49.656Z,9.711591
2023-02-28T06:26:49.654Z,9.711591
2023-02-28T06:27:49.643Z,9.711612
2023-02-28T06:28:49.634Z,9.711619
2023-02-28T06:29:50.624Z,9.711631
2023-02-28T06:30:50.298Z,9.711617
2023-02-28T06:31:50.685Z,9.711618
2023-02-28T06:32:49.599Z,9.711637
2023-02-28T06:33:49.607Z,9.711659
2023-02-28T06:34:50.392Z,9.711650
2023-02-28T06:35:49.625Z,9.711685
2023-02-28T06:36:51.297Z,9.711700
2023-02-28T06:37:49.569Z,9.711676
2023-02-28T06:38:49.546Z,9.711689
2023-02-28T06:39:49.575Z,9.711672
2023-02-28T06:40:49.554Z,9.711684
2023-02-28T06:41:55.215Z,9.711693
2023-02-28T06:42:51.527Z,9.711698
2023-02-28T06:43:49.508Z,9.711742
2023-02-28T06:44:49.500Z,9.711720
2023-02-28T06:45:50.528Z,9.711679
2023-02-28T06:46:49.507Z,9.711729
2023-02-28T06:47:49.484Z,9.711705
2023-02-28T06:48:49.488Z,9.711802
2023-02-28T06:49:51.373Z,9.711702
2023-02-28T06:50:49.472Z,9.711759
2023-02-28T06:51:49.460Z,9.711736
2023-02-28T06:52:49.448Z,9.711766
2023-02-28T06:53:49.443Z,9.711700
2023-02-28T06:54:49.440Z,9.711700
2023-02-28T06:55:49.428Z,9.711694
2023-02-28T06:56:50.306Z,9.711687
2023-02-28T06:57:49.424Z,9.711745
2023-02-28T06:58:49.435Z,9.711639
2023-02-28T06:59:49.423Z,9.711732
2023-02-28T07:00:49.390Z,9.711791
2023-02-28T07:01:49.399Z,9.711765
2023-02-28T07:02:49.376Z,9.711829
2023-02-28T07:03:49.368Z,9.711744
2023-02-28T07:04:49.396Z,9.711777
2023-02-28T07:05:49.338Z,9.711880
2023-02-28T07:06:49.335Z,9.711829
2023-02-28T07:07:49.405Z,9.711843
2023-02-28T07:08:49.316Z,9.711600
2023-02-28T07:09:49.313Z,9.711686
2023-02-28T07:10:49.304Z,9.711642
2023-02-28T07:11:49.291Z,9.711731
2023-02-28T07:12:49.283Z,9.711765
2023-02-28T07:13:50.281Z,9.712065
2023-02-28T07:14:49.269Z,9.711896
2023-02-28T07:15:49.270Z,9.711742
2023-02-28T07:16:49.248Z,9.712230
2023-02-28T07:17:49.254Z,9.712234
2023-02-28T07:18:49.231Z,9.712155
2023-02-28T07:19:49.232Z,9.712020
2023-02-28T07:20:49.216Z,9.711870
2023-02-28T07:21:49.205Z,9.711894
2023-02-28T07:22:49.219Z,9.711819
2023-02-28T07:23:49.200Z,9.711953
2023-02-28T07:24:49.190Z,9.711962
2023-02-28T07:25:49.229Z,9.711864
2023-02-28T07:26:49.182Z,9.711819
2023-02-28T07:27:49.160Z,9.711810
2023-02-28T07:28:49.163Z,9.711920
2023-02-28T07:29:49.140Z,9.711929
2023-02-28T07:30:49.307Z,9.712044
2023-02-28T07:31:49.151Z,9.712030
2023-02-28T07:32:49.128Z,9.711945
2023-02-28T07:33:49.106Z,9.711960
2023-02-28T07:34:49.103Z,9.711878
2023-02-28T07:35:49.121Z,9.711874
2023-02-28T07:36:51.287Z,9.711830
2023-02-28T07:37:49.090Z,9.711901
2023-02-28T07:38:49.081Z,9.711894
2023-02-28T07:39:49.097Z,9.711712
2023-02-28T07:40:49.059Z,9.711809
2023-02-28T07:41:49.063Z,9.711777
2023-02-28T07:42:49.087Z,9.711905
2023-02-28T07:43:49.052Z,9.711792
2023-02-28T07:44:49.026Z,9.711695
2023-02-28T07:45:50.813Z,9.711712
2023-02-28T07:46:49.081Z,9.711677
2023-02-28T07:47:49.008Z,9.711661
2023-02-28T07:48:49.007Z,9.711633
2023-02-28T07:49:48.999Z,9.711642
2023-02-28T07:50:48.987Z,9.711642
2023-02-28T07:51:48.988Z,9.711626
2023-02-28T07:52:48.965Z,9.711637
2023-02-28T07:53:48.963Z,9.711636
2023-02-28T07:54:48.943Z,9.711624
2023-02-28T07:55:48.942Z,9.711631
2023-02-28T07:56:48.944Z,9.711606
2023-02-28T07:57:48.936Z,9.711614
2023-02-28T07:58:48.917Z,9.711605
2023-02-28T07:59:48.915Z,9.711642
2023-02-28T08:00:48.945Z,9.711623
2023-02-28T08:01:48.950Z,9.711633
2023-02-28T08:02:48.898Z,9.711651
2023-02-28T08:03:48.889Z,9.711585
2023-02-28T08:04:49.427Z,9.711632
2023-02-28T08:05:48.856Z,9.711641
2023-02-28T08:06:48.848Z,9.711657
2023-02-28T08:07:48.858Z,9.711700
2023-02-28T08:08:48.837Z,9.711651
2023-02-28T08:09:48.832Z,9.711626
2023-02-28T08:10:48.821Z,9.711711
2023-02-28T08:11:50.451Z,9.711679
2023-02-28T08:12:48.801Z,9.711673
2023-02-28T08:13:48.793Z,9.711725
2023-02-28T08:14:48.782Z,9.711684
2023-02-28T08:15:48.856Z,9.711610
2023-02-28T08:16:48.777Z,9.711655
2023-02-28T08:17:48.765Z,9.711549
2023-02-28T08:18:48.792Z,9.711547
2023-02-28T08:19:48.740Z,9.711637
2023-02-28T08:20:48.759Z,9.711617
2023-02-28T08:21:48.736Z,9.711617
2023-02-28T08:22:48.732Z,9.711699
2023-02-28T08:23:48.722Z,9.711735
2023-02-28T08:24:48.713Z,9.711686
2023-02-28T08:25:48.700Z,9.711716
2023-02-28T08:26:48.688Z,9.711741
2023-02-28T08:27:48.681Z,9.711766
2023-02-28T08:28:48.682Z,9.711786
2023-02-28T08:29:48.656Z,9.711733
2023-02-28T08:30:48.667Z,9.711661
2023-02-28T08:31:48.836Z,9.711683
2023-02-28T08:32:48.688Z,9.711589
2023-02-28T08:33:48.644Z,9.711663
2023-02-28T08:34:48.654Z,9.711572
2023-02-28T08:35:48.696Z,9.711577
2023-02-28T08:36:48.604Z,9.711682
2023-02-28T08:37:48.598Z,9.711746
2023-02-28T08:38:48.592Z,9.711723
2023-02-28T08:39:48.590Z,9.711637
2023-02-28T08:40:48.580Z,9.711638
2023-02-28T08:41:53.457Z,9.711715
2023-02-28T08:42:50.592Z,9.711829
2023-02-28T08:43:48.558Z,9.711817
2023-02-28T08:44:48.541Z,9.711729
2023-02-28T08:45:48.591Z,9.711632
2023-02-28T08:46:48.530Z,9.711779
2023-02-28T08:47:48.548Z,9.711766
2023-02-28T08:48:48.520Z,9.711673
2023-02-28T08:49:48.503Z,9.711609
2023-02-28T08:50:55.725Z,9.711724
2023-02-28T08:51:50.494Z,9.711686
2023-02-28T08:52:48.490Z,9.711729
2023-02-28T08:53:48.472Z,9.711620
2023-02-28T08:54:48.465Z,9.711686
2023-02-28T08:55:48.487Z,9.711751
2023-02-28T08:56:48.461Z,9.711627
2023-02-28T08:57:48.861Z,9.711519
2023-02-28T08:58:48.435Z,9.711614
2023-02-28T08:59:48.436Z,9.711664
2023-02-28T09:00:48.502Z,9.711562
2023-02-28T09:01:48.414Z,9.711549
2023-02-28T09:02:48.401Z,9.711659
2023-02-28T09:03:48.472Z,9.711743
2023-02-28T09:04:49.391Z,9.711588
2023-02-28T09:05:48.404Z,9.711618
2023-02-28T09:06:48.384Z,9.711698
2023-02-28T09:07:48.360Z,9.711706
2023-02-28T09:08:48.373Z,9.711704
2023-02-28T09:09:48.357Z,9.711677
2023-02-28T09:10:48.348Z,9.711655
2023-02-28T09:11:48.333Z,9.711681
2023-02-28T09:12:48.323Z,9.711699
2023-02-28T09:13:48.384Z,9.711678
2023-02-28T09:14:48.311Z,9.711647
2023-02-28T09:15:48.302Z,9.711643
2023-02-28T09:16:48.338Z,9.711690
2023-02-28T09:17:48.742Z,9.711706
2023-02-28T09:18:49.310Z,9.711673
2023-02-28T09:19:48.285Z,9.711665
2023-02-28T09:20:48.270Z,9.711689
2023-02-28T09:21:48.264Z,9.711726
2023-02-28T09:22:48.270Z,9.711700
2023-02-28T09:23:48.260Z,9.711718
2023-02-28T09:24:48.311Z,9.711720
2023-02-28T09:25:48.245Z,9.711767
2023-02-28T09:27:01.541Z,9.711879
2023-02-28T09:27:50.210Z,9.711791
2023-02-28T09:28:48.238Z,9.711780
2023-02-28T09:29:48.211Z,9.711783
2023-02-28T09:30:48.232Z,9.711862
2023-02-28T09:31:48.210Z,9.711869
2023-02-28T09:32:50.343Z,9.711788
2023-02-28T09:33:48.159Z,9.711709
2023-02-28T09:34:48.152Z,9.711840
2023-02-28T09:35:48.231Z,9.711798
2023-02-28T09:36:48.665Z,9.711845
2023-02-28T09:37:48.129Z,9.711730
2023-02-28T09:38:48.903Z,9.711751
2023-02-28T09:39:49.124Z,9.711738
2023-02-28T09:40:48.113Z,9.711817
2023-02-28T09:41:48.121Z,9.711821
2023-02-28T09:42:48.091Z,9.711853
2023-02-28T09:43:48.090Z,9.711615
2023-02-28T09:44:48.083Z,9.711540
2023-02-28T09:45:48.134Z,9.711837
2023-02-28T09:46:48.061Z,9.711736
2023-02-28T09:47:48.058Z,9.711845
2023-02-28T09:48:48.046Z,9.711708
2023-02-28T09:49:48.087Z,9.711642
2023-02-28T09:50:48.025Z,9.711818
2023-02-28T09:51:48.017Z,9.711832
2023-02-28T09:52:48.023Z,9.711904
2023-02-28T09:53:53.290Z,9.711757
2023-02-28T09:54:50.001Z,9.711742
2023-02-28T09:55:47.988Z,9.711669
2023-02-28T09:56:47.979Z,9.711507
2023-02-28T09:57:47.982Z,9.711582
2023-02-28T09:58:48.865Z,9.711746
2023-02-28T09:59:47.960Z,9.711689
2023-02-28T10:00:47.954Z,9.711666
2023-02-28T10:01:47.980Z,9.711612
2023-02-28T10:02:47.938Z,9.711591
2023-02-28T10:03:48.919Z,9.711639
2023-02-28T10:04:47.957Z,9.711569
2023-02-28T10:05:47.908Z,9.711832
2023-02-28T10:06:47.925Z,9.711731
2023-02-28T10:07:48.900Z,9.711712
2023-02-28T10:08:47.882Z,9.711666
2023-02-28T10:09:47.874Z,9.711544
2023-02-28T10:10:47.985Z,9.711814
2023-02-28T10:12:48.863Z,9.711658
2023-02-28T10:13:47.843Z,9.711720
2023-02-28T10:14:47.857Z,9.711606
2023-02-28T10:15:47.880Z,9.711569
2023-02-28T10:16:47.822Z,9.711653
2023-02-28T10:17:55.676Z,9.711180
2023-02-28T10:18:49.800Z,9.711069
2023-02-28T10:19:48.796Z,9.711469
2023-02-28T10:20:47.800Z,9.711535
2023-02-28T10:21:47.774Z,9.711553
2023-02-28T10:22:47.768Z,9.711573
2023-02-28T10:23:47.760Z,9.711582
2023-02-28T10:24:47.747Z,9.711604
2023-02-28T10:25:47.774Z,9.711582
2023-02-28T10:26:47.740Z,9.711550
2023-02-28T10:27:47.738Z,9.711562
2023-02-28T10:28:47.722Z,9.711572
2023-02-28T10:29:47.706Z,9.711628
2023-02-28T10:30:47.764Z,9.711719
2023-02-28T10:31:47.777Z,9.711603
2023-02-28T10:32:47.682Z,9.711592
2023-02-28T10:33:48.398Z,9.711598
2023-02-28T10:34:47.672Z,9.711532
2023-02-28T10:35:47.776Z,9.711554
2023-02-28T10:36:47.656Z,9.711604
2023-02-28T10:37:47.655Z,9.711538
2023-02-28T10:38:47.651Z,9.711596
2023-02-28T10:39:47.633Z,9.711566
2023-02-28T10:40:47.629Z,9.711636
2023-02-28T10:41:48.366Z,9.711657
2023-02-28T10:42:47.613Z,9.711609
2023-02-28T10:43:47.606Z,9.711630
2023-02-28T10:44:47.592Z,9.711599
2023-02-28T10:45:47.590Z,9.711648
2023-02-28T10:46:47.666Z,9.711706
2023-02-28T10:47:47.581Z,9.711603
2023-02-28T10:48:47.565Z,9.711589
2023-02-28T10:49:47.555Z,9.711638
2023-02-28T10:50:47.553Z,9.711657
2023-02-28T10:51:47.536Z,9.711593
2023-02-28T10:52:47.535Z,9.711638
2023-02-28T10:54:00.105Z,9.711796
2023-02-28T10:54:49.549Z,9.711785
2023-02-28T10:55:47.514Z,9.711765
2023-02-28T10:56:47.514Z,9.711998
2023-02-28T10:57:47.491Z,9.712142
2023-02-28T10:58:47.486Z,9.712011
2023-02-28T10:59:47.490Z,9.711897
2023-02-28T11:00:47.476Z,9.711857
2023-02-28T11:01:47.536Z,9.712260
2023-02-28T11:02:47.531Z,9.711947
2023-02-28T11:03:47.466Z,9.711879
2023-02-28T11:04:48.897Z,9.712027
2023-02-28T11:05:48.425Z,9.712000
2023-02-28T11:06:47.450Z,9.712214
2023-02-28T11:07:53.446Z,9.712296
2023-02-28T11:08:51.336Z,9.712160
2023-02-28T11:09:47.426Z,9.712120
2023-02-28T11:10:50.925Z,9.712188
2023-02-28T11:11:47.391Z,9.712253
2023-02-28T11:12:53.141Z,9.712501
2023-02-28T11:13:49.385Z,9.711864
2023-02-28T11:14:47.362Z,9.711823
2023-02-28T11:15:47.378Z,9.711839
2023-02-28T11:16:47.356Z,9.711918
2023-02-28T11:17:47.395Z,9.712058
2023-02-28T11:18:47.320Z,9.712085
2023-02-28T11:19:47.313Z,9.712107
2023-02-28T11:20:47.365Z,9.712050
2023-02-28T11:21:47.301Z,9.712146
2023-02-28T11:22:47.322Z,9.712189
2023-02-28T11:23:47.282Z,9.712196
2023-02-28T11:24:47.279Z,9.712330
2023-02-28T11:25:48.917Z,9.712366
2023-02-28T11:26:47.272Z,9.712143
2023-02-28T11:27:47.251Z,9.712296
2023-02-28T11:28:47.233Z,9.712204
2023-02-28T11:29:47.254Z,9.712216
2023-02-28T11:30:47.222Z,9.712168
2023-02-28T11:31:47.287Z,9.712010
2023-02-28T11:32:47.295Z,9.711974
2023-02-28T11:33:47.207Z,9.711921
2023-02-28T11:34:47.199Z,9.711941
2023-02-28T11:35:47.202Z,9.712058
2023-02-28T11:36:47.198Z,9.712168
2023-02-28T11:37:47.953Z,9.712171
2023-02-28T11:38:50.898Z,9.712199
2023-02-28T11:39:48.183Z,9.712076
2023-02-28T11:40:49.019Z,9.711906
2023-02-28T11:41:47.137Z,9.711959
2023-02-28T11:42:47.165Z,9.712002
2023-02-28T11:43:47.872Z,9.712272
2023-02-28T11:44:47.179Z,9.712162
2023-02-28T11:45:47.097Z,9.712202
2023-02-28T11:46:47.191Z,9.711893
2023-02-28T11:47:47.136Z,9.711749
2023-02-28T11:48:47.090Z,9.712071
2023-02-28T11:49:47.089Z,9.711994